createdAt,value
2018-06-05T00:02:03.911Z,10.10
2018-06-05T00:05:28.712Z,7.40
2018-06-05T00:08:53.429Z,8.10
2018-06-05T00:12:18.376Z,8.00
2018-06-05T00:15:43.055Z,8.47
2018-06-05T00:19:07.811Z,7.70
2018-06-05T00:22:32.658Z,8.87
2018-06-05T00:25:57.481Z,9.00
2018-06-05T00:29:22.337Z,7.57
2018-06-05T00:32:47.187Z,8.07
2018-06-05T00:36:12.075Z,7.73
2018-06-05T00:39:37.060Z,6.60
2018-06-05T00:43:02.248Z,6.13
2018-06-05T00:46:27.215Z,9.23
2018-06-05T00:49:52.095Z,7.93
2018-06-05T00:53:17.591Z,7.47
2018-06-05T00:56:42.573Z,6.73
2018-06-05T01:00:07.415Z,6.63
2018-06-05T01:03:32.292Z,7.23
2018-06-05T01:06:57.155Z,6.33
2018-06-05T01:10:21.821Z,6.73
2018-06-05T01:13:46.612Z,7.83
2018-06-05T01:17:11.415Z,5.70
2018-06-05T01:20:36.268Z,5.90
2018-06-05T01:24:01.197Z,6.00
2018-06-05T01:27:25.671Z,5.70
2018-06-05T01:30:50.537Z,9.97
2018-06-05T01:34:15.691Z,6.73
2018-06-05T01:37:40.527Z,6.30
2018-06-05T01:41:05.267Z,6.23
2018-06-05T01:45:54.654Z,6.10
2018-06-05T01:49:19.013Z,6.67
2018-06-05T01:52:43.817Z,6.00
2018-06-05T01:56:08.748Z,6.93
2018-06-05T01:59:33.603Z,7.47
2018-06-05T02:02:58.392Z,7.37
2018-06-05T02:06:23.291Z,7.00
2018-06-05T02:09:48.105Z,6.53
2018-06-05T02:13:12.970Z,9.47
2018-06-05T02:16:37.801Z,7.50
2018-06-05T02:20:02.550Z,7.23
2018-06-05T02:23:27.512Z,6.20
2018-06-05T02:26:52.352Z,7.20
2018-06-05T02:30:17.226Z,8.17
2018-06-05T02:33:41.997Z,9.07
2018-06-05T02:37:06.812Z,8.23
2018-06-05T02:40:31.643Z,9.27
2018-06-05T02:43:56.532Z,8.93
2018-06-05T02:47:21.343Z,9.40
2018-06-05T02:50:46.127Z,8.37
2018-06-05T02:54:10.946Z,8.37
2018-06-05T02:57:35.796Z,7.67
2018-06-05T03:01:00.757Z,10.10
2018-06-05T03:04:25.579Z,7.70
2018-06-05T03:07:50.415Z,8.70
2018-06-05T03:11:16.661Z,8.43
2018-06-05T03:14:41.490Z,8.27
2018-06-05T03:18:06.299Z,7.67
2018-06-05T03:21:31.058Z,8.93
2018-06-05T03:24:55.733Z,10.17
2018-06-05T03:28:20.665Z,11.17
2018-06-05T03:31:45.364Z,8.43
2018-06-05T03:35:10.172Z,9.13
2018-06-05T03:38:36.290Z,11.87
2018-06-05T03:42:01.104Z,11.20
2018-06-05T03:45:25.968Z,9.00
2018-06-05T03:48:50.359Z,9.23
2018-06-05T03:52:15.153Z,7.70
2018-06-05T03:55:39.999Z,9.97
2018-06-05T03:59:04.762Z,9.37
2018-06-05T04:02:29.661Z,9.77
2018-06-05T04:05:54.485Z,10.63
2018-06-05T04:09:19.163Z,11.10
2018-06-05T04:12:43.899Z,11.60
2018-06-05T04:16:08.621Z,9.93
2018-06-05T04:19:33.299Z,9.63
2018-06-05T04:30:52.240Z,11.00
2018-06-05T04:34:17.185Z,11.97
2018-06-05T04:37:41.586Z,11.27
2018-06-05T04:41:06.393Z,11.67
2018-06-05T04:44:31.182Z,12.07
2018-06-05T04:47:55.854Z,13.03
2018-06-05T04:51:20.724Z,11.27
2018-06-05T04:54:45.421Z,12.73
2018-06-05T04:58:10.128Z,11.33
2018-06-05T05:01:34.938Z,13.97
2018-06-05T05:04:59.738Z,13.37
2018-06-05T05:08:24.447Z,12.50
2018-06-05T05:11:49.503Z,12.57
2018-06-05T05:15:14.344Z,11.17
2018-06-05T05:19:12.976Z,13.50
2018-06-05T05:22:37.707Z,12.83
2018-06-05T05:26:02.561Z,10.87
2018-06-05T05:29:27.337Z,11.03
2018-06-05T05:32:52.219Z,10.47
2018-06-05T05:36:17.134Z,13.23
2018-06-05T05:39:41.876Z,9.97
2018-06-05T05:43:06.940Z,9.20
2018-06-05T05:46:31.638Z,9.47
2018-06-05T05:49:56.475Z,9.13
2018-06-05T05:53:21.127Z,9.13
2018-06-05T05:56:45.806Z,9.07
2018-06-05T06:00:10.516Z,10.17
2018-06-05T06:03:35.223Z,8.97
2018-06-05T06:06:59.695Z,9.73
2018-06-05T06:10:24.437Z,9.30
2018-06-05T06:13:49.144Z,9.50
2018-06-05T06:17:13.779Z,9.40
2018-06-05T06:20:38.439Z,11.77
2018-06-05T06:24:03.234Z,10.50
2018-06-05T06:27:27.945Z,9.67
2018-06-05T06:30:52.655Z,9.50
2018-06-05T06:34:17.470Z,8.67
2018-06-05T06:37:42.391Z,8.27
2018-06-05T06:41:07.164Z,9.87
2018-06-05T06:44:31.988Z,9.57
2018-06-05T06:47:56.617Z,8.07
2018-06-05T06:51:21.278Z,9.60
2018-06-05T06:54:46.160Z,8.13
2018-06-05T06:58:10.881Z,9.63
2018-06-05T07:01:35.634Z,9.17
2018-06-05T07:05:00.241Z,8.97
2018-06-05T07:08:25.022Z,9.80
2018-06-05T07:11:49.414Z,10.97
2018-06-05T07:15:14.109Z,9.33
2018-06-05T07:18:38.858Z,10.47
2018-06-05T07:22:03.509Z,8.70
2018-06-05T07:25:27.828Z,10.20
2018-06-05T07:28:52.707Z,10.07
2018-06-05T07:32:17.320Z,10.20
2018-06-05T07:35:42.076Z,10.00
2018-06-05T07:39:09.262Z,9.37
2018-06-05T07:42:34.058Z,7.70
2018-06-05T07:45:58.824Z,6.73
2018-06-05T07:49:23.166Z,6.87
2018-06-05T07:52:47.848Z,7.13
2018-06-05T07:56:12.692Z,6.07
2018-06-05T07:59:37.367Z,10.27
2018-06-05T08:03:02.096Z,7.63
2018-06-05T08:06:26.845Z,8.70
2018-06-05T08:09:51.700Z,8.70
2018-06-05T08:13:16.404Z,8.30
2018-06-05T08:16:41.119Z,7.77
2018-06-05T08:20:05.973Z,7.00
2018-06-05T08:23:30.619Z,7.97
2018-06-05T08:26:55.323Z,9.50
2018-06-05T08:30:20.333Z,8.43
2018-06-05T08:33:45.042Z,8.13
2018-06-05T08:37:09.972Z,10.77
2018-06-05T08:40:34.795Z,8.17
2018-06-05T08:43:59.539Z,8.70
2018-06-05T08:47:24.271Z,9.47
2018-06-05T08:50:48.946Z,9.83
2018-06-05T08:54:13.367Z,9.73
2018-06-05T08:57:38.036Z,10.03
2018-06-05T09:01:02.765Z,10.30
2018-06-05T09:04:27.042Z,9.93
2018-06-05T09:07:51.760Z,8.87
2018-06-05T09:11:16.534Z,7.47
2018-06-05T09:14:41.225Z,9.90
2018-06-05T09:18:05.996Z,10.07
2018-06-05T09:21:30.351Z,9.17
2018-06-05T09:24:55.060Z,9.93
2018-06-05T09:28:19.819Z,9.03
2018-06-05T09:31:44.118Z,8.73
2018-06-05T09:35:08.828Z,10.80
2018-06-05T09:38:33.606Z,9.73
2018-06-05T09:41:58.339Z,10.63
2018-06-05T09:45:23.102Z,10.27
2018-06-05T09:48:47.841Z,9.73
2018-06-05T09:52:12.490Z,10.17
2018-06-05T09:55:37.220Z,9.77
2018-06-05T09:59:01.924Z,9.10
2018-06-05T10:02:26.720Z,8.00
2018-06-05T10:05:51.386Z,8.57
2018-06-05T10:09:16.121Z,10.13
2018-06-05T10:12:40.444Z,7.33
2018-06-05T10:16:05.979Z,8.43
2018-06-05T10:19:30.969Z,8.47
2018-06-05T10:22:55.796Z,8.13
2018-06-05T10:26:20.569Z,7.80
2018-06-05T10:29:45.266Z,9.07
2018-06-05T10:33:10.556Z,7.33
2018-06-05T10:36:40.063Z,6.97
2018-06-05T10:40:05.850Z,6.87
2018-06-05T10:43:31.160Z,6.50
2018-06-05T10:46:57.048Z,7.33
2018-06-05T10:50:22.143Z,7.23
2018-06-05T10:53:47.099Z,9.03
2018-06-05T10:57:11.741Z,7.77
2018-06-05T11:00:36.590Z,7.70
2018-06-05T11:04:01.481Z,10.13
2018-06-05T11:07:26.233Z,9.97
2018-06-05T11:10:50.932Z,8.03
2018-06-05T11:14:16.250Z,9.20
2018-06-05T11:17:41.078Z,11.43
2018-06-05T11:21:05.835Z,12.03
2018-06-05T11:24:30.618Z,11.30
2018-06-05T11:27:54.974Z,9.63
2018-06-05T11:31:19.872Z,11.57
2018-06-05T11:34:44.588Z,12.17
2018-06-05T11:38:09.492Z,11.00
2018-06-05T11:41:33.874Z,11.60
2018-06-05T11:44:58.830Z,11.13
2018-06-05T11:48:23.598Z,10.67
2018-06-05T11:51:48.644Z,12.13
2018-06-05T11:55:13.275Z,10.80
2018-06-05T11:58:37.958Z,9.67
2018-06-05T12:02:12.514Z,9.50
2018-06-05T12:05:37.274Z,12.00
2018-06-05T12:09:01.763Z,9.10
2018-06-05T12:12:26.548Z,8.47
2018-06-05T12:15:51.260Z,7.73
2018-06-05T12:19:16.015Z,8.93
2018-06-05T12:22:40.885Z,8.47
2018-06-05T12:26:05.528Z,7.23
2018-06-05T12:29:31.382Z,8.47
2018-06-05T12:32:56.010Z,8.40
2018-06-05T12:36:20.914Z,8.40
2018-06-05T12:39:45.624Z,8.00
2018-06-05T12:43:10.330Z,8.13
2018-06-05T12:46:35.326Z,9.13
2018-06-05T12:50:00.124Z,9.57
2018-06-05T12:53:24.902Z,11.73
2018-06-05T12:56:49.817Z,10.23
2018-06-05T13:00:14.668Z,9.00
2018-06-05T13:03:39.371Z,8.17
2018-06-05T13:07:04.248Z,8.67
2018-06-05T13:10:29.117Z,10.47
2018-06-05T13:13:54.043Z,8.87
2018-06-05T13:17:18.958Z,8.30
2018-06-05T13:20:45.012Z,8.00
2018-06-05T13:24:10.290Z,7.70
2018-06-05T13:27:36.347Z,7.23
2018-06-05T13:31:01.585Z,7.40
2018-06-05T13:34:25.930Z,8.17
2018-06-05T13:37:50.656Z,7.83
2018-06-05T13:41:15.532Z,6.87
2018-06-05T13:44:40.190Z,7.17
2018-06-05T13:48:04.535Z,7.67
2018-06-05T13:51:29.382Z,7.03
2018-06-05T13:54:53.815Z,7.30
2018-06-05T13:58:22.712Z,6.57
2018-06-05T14:01:48.988Z,8.07
2018-06-05T14:05:15.624Z,8.77
2018-06-05T14:08:41.280Z,7.20
2018-06-05T14:12:07.055Z,7.90
2018-06-05T14:15:32.784Z,8.90
2018-06-05T14:18:59.828Z,6.80
2018-06-05T14:22:24.698Z,6.43
2018-06-05T14:25:50.644Z,6.97
2018-06-05T14:29:16.587Z,7.67
2018-06-05T14:32:43.094Z,7.20
2018-06-05T14:36:12.339Z,7.10
2018-06-05T14:39:37.598Z,6.93
2018-06-05T14:43:02.618Z,6.50
2018-06-05T14:46:28.692Z,7.07
2018-06-05T14:49:56.138Z,7.27
2018-06-05T14:54:03.011Z,7.00
2018-06-05T14:57:35.408Z,7.42
2018-06-05T15:01:01.405Z,7.30
2018-06-05T15:04:28.255Z,6.00
2018-06-05T15:07:53.720Z,6.53
2018-06-05T15:11:19.920Z,7.00
2018-06-05T15:14:46.377Z,8.80
2018-06-05T15:18:21.263Z,8.57
2018-06-05T15:21:48.163Z,6.03
2018-06-05T15:26:37.700Z,6.35
2018-06-05T15:30:03.591Z,6.27
2018-06-05T15:33:28.802Z,6.30
2018-06-05T15:36:53.530Z,5.90
2018-06-05T15:40:18.285Z,5.47
2018-06-05T15:43:43.065Z,6.53
2018-06-05T15:47:07.883Z,6.33
2018-06-05T15:50:32.664Z,6.47
2018-06-05T15:53:57.385Z,6.87
2018-06-05T15:57:22.323Z,6.20
2018-06-05T16:00:47.606Z,6.45
2018-06-05T16:04:12.574Z,7.40
2018-06-05T16:07:37.335Z,6.60
2018-06-05T16:11:02.000Z,6.15
2018-06-05T16:14:26.783Z,5.53
2018-06-05T16:17:52.634Z,6.03
2018-06-05T16:21:17.613Z,6.55
2018-06-05T16:24:43.263Z,6.53
2018-06-05T16:28:08.069Z,6.55
2018-06-05T16:31:32.937Z,6.20
2018-06-05T16:34:57.733Z,5.65
2018-06-05T16:38:22.511Z,6.47
2018-06-05T16:41:48.367Z,6.03
2018-06-05T16:45:13.487Z,7.60
2018-06-05T16:48:38.380Z,7.87
2018-06-05T16:52:03.098Z,5.90
2018-06-05T16:55:27.893Z,5.95
2018-06-05T16:58:52.704Z,5.95
2018-06-05T17:02:17.544Z,6.70
2018-06-05T17:05:42.255Z,6.03
2018-06-05T17:09:10.994Z,5.45
2018-06-05T17:12:36.123Z,6.80
2018-06-05T17:16:06.587Z,6.15
2018-06-05T17:19:31.562Z,5.28
2018-06-05T17:22:55.871Z,6.40
2018-06-05T17:26:20.834Z,11.45
2018-06-05T17:29:45.645Z,6.53
2018-06-05T17:33:11.538Z,5.58
2018-06-05T17:36:36.356Z,5.50
2018-06-05T17:40:01.188Z,6.70
2018-06-05T17:43:26.204Z,5.60
2018-06-05T17:46:51.616Z,6.53
2018-06-05T17:50:16.782Z,5.65
2018-06-05T17:53:41.473Z,5.75
2018-06-05T17:57:06.399Z,5.95
2018-06-05T18:00:31.159Z,6.15
2018-06-05T18:03:56.126Z,5.80
2018-06-05T18:07:21.070Z,5.58
2018-06-05T18:10:45.967Z,5.78
2018-06-05T18:14:10.570Z,6.17
2018-06-05T18:17:35.424Z,7.08
2018-06-05T18:21:00.540Z,7.83
2018-06-05T18:24:25.017Z,5.78
2018-06-05T18:27:50.098Z,5.62
2018-06-05T18:31:15.946Z,5.12
2018-06-05T18:34:41.301Z,5.30
2018-06-05T18:39:30.833Z,4.97
2018-06-05T18:42:56.010Z,4.60
2018-06-05T18:46:22.247Z,5.00
2018-06-05T18:49:48.364Z,5.00
2018-06-05T18:56:49.661Z,5.67
2018-06-05T19:00:14.525Z,5.80
2018-06-05T19:03:40.814Z,4.90
2018-06-05T19:11:36.868Z,4.60
2018-06-05T19:15:01.819Z,4.70
2018-06-05T19:18:27.942Z,4.87
2018-06-05T19:21:52.951Z,5.47
2018-06-05T19:25:17.762Z,6.03
2018-06-05T19:28:42.600Z,6.20
2018-06-05T19:32:07.521Z,5.33
2018-06-05T19:35:32.290Z,4.83
2018-06-05T19:38:58.194Z,4.70
2018-06-05T19:42:23.036Z,5.60
2018-06-05T19:45:47.825Z,5.30
2018-06-05T19:49:12.578Z,5.37
2018-06-05T19:52:37.347Z,5.03
2018-06-05T19:56:02.112Z,4.93
2018-06-05T19:59:26.876Z,5.37
2018-06-05T20:02:51.630Z,5.90
2018-06-05T20:06:16.505Z,6.43
2018-06-05T20:09:42.291Z,4.73
2018-06-05T20:13:08.633Z,4.80
2018-06-05T20:16:33.461Z,5.00
2018-06-05T20:19:58.832Z,4.23
2018-06-05T20:23:23.634Z,5.77
2018-06-05T20:26:48.380Z,4.90
2018-06-05T20:30:13.174Z,4.50
2018-06-05T20:33:38.130Z,4.73
2018-06-05T20:41:42.687Z,4.40
2018-06-05T20:45:07.857Z,6.23
2018-06-05T20:48:33.802Z,6.03
2018-06-05T20:51:59.432Z,6.17
2018-06-05T20:55:24.431Z,4.87
2018-06-05T20:58:49.450Z,4.10
2018-06-05T21:02:14.455Z,4.40
2018-06-05T21:05:39.347Z,4.30
2018-06-05T21:09:05.195Z,5.33
2018-06-05T21:12:30.247Z,4.87
2018-06-05T21:15:55.185Z,4.13
2018-06-05T21:19:20.306Z,4.10
2018-06-05T21:22:45.169Z,4.17
2018-06-05T21:26:10.654Z,4.60
2018-06-05T21:29:35.697Z,5.43
2018-06-05T21:33:00.527Z,4.37
2018-06-05T21:36:26.371Z,4.50
2018-06-05T21:39:51.238Z,5.27
2018-06-05T21:43:16.154Z,3.37
2018-06-05T21:46:41.243Z,3.90
2018-06-05T21:50:06.308Z,4.57
2018-06-05T21:53:31.139Z,4.23
2018-06-05T21:56:56.018Z,9.00
2018-06-05T22:00:24.452Z,5.70
2018-06-05T22:03:49.404Z,3.17
2018-06-05T22:07:14.256Z,4.43
2018-06-05T22:10:39.147Z,3.57
2018-06-05T22:14:04.128Z,4.40
2018-06-05T22:17:29.043Z,3.20
2018-06-05T22:20:53.997Z,4.27
2018-06-05T22:24:18.910Z,3.43
2018-06-05T22:27:43.845Z,2.80
2018-06-05T22:31:08.539Z,4.53
2018-06-05T22:34:33.433Z,4.87
2018-06-05T22:37:59.333Z,3.13
2018-06-05T22:41:24.173Z,5.27
2018-06-05T22:44:49.086Z,6.57
2018-06-05T22:48:14.120Z,3.10
2018-06-05T22:51:39.182Z,4.20
2018-06-05T22:55:05.177Z,3.50
2018-06-05T22:58:30.015Z,4.83
2018-06-05T23:01:54.786Z,4.07
2018-06-05T23:05:19.721Z,3.17
2018-06-05T23:08:45.828Z,4.67
2018-06-05T23:12:10.827Z,4.17
2018-06-05T23:15:35.741Z,4.67
2018-06-05T23:19:00.637Z,3.50
2018-06-05T23:22:25.607Z,4.57
2018-06-05T23:25:50.659Z,3.37
2018-06-05T23:29:15.595Z,4.80
2018-06-05T23:32:40.549Z,3.40
2018-06-05T23:36:05.407Z,3.40
2018-06-05T23:39:30.252Z,3.93
2018-06-05T23:42:55.174Z,3.30
2018-06-05T23:46:20.180Z,3.37
2018-06-05T23:49:45.053Z,3.20
2018-06-05T23:53:09.997Z,3.60
2018-06-05T23:56:35.798Z,3.00
